RYR74SV LMML-LDZA
Flight info
| Callsign | RYR74SV |
|---|---|
| Flight time | 1h 37m |
| Altitude | 36000 |
| Route | GZO3B GZO P623 OLLEK DCT ARFOL DCT ROMSU DCT XOLTA DCT SIRMI DCT RUDIK |
| Aircraft | A320/M-SDE2FGHIJ1RWY/SB1 |
Departure
| Time | 2026-04-27 13:35 |
|---|---|
| Airport | Malta International Airport (LMML) |
Arrival
| Time | 2026-04-27 15:12 |
|---|---|
| Airport | Zagreb Franjo Tuđman International Airport (LDZA) |
| Time | Latitude | Longitude | Altitude | Speed | Heading |
|---|---|---|---|---|---|
| 2026-04-27 13:02 | 35.84813 | 14.49514 | 259 ft | 0 kts | 359° |
| 2026-04-27 13:21 | 35.84794 | 14.49514 | 259 ft | 4 kts | 355° |
| 2026-04-27 13:22 | 35.84768 | 14.49518 | 259 ft | 4 kts | 342° |
| 2026-04-27 13:22 | 35.84751 | 14.49526 | 259 ft | 0 kts | 340° |
| 2026-04-27 13:25 | 35.84755 | 14.49521 | 259 ft | 1 kts | 318° |
| 2026-04-27 13:26 | 35.84760 | 14.49510 | 259 ft | 1 kts | 302° |
| 2026-04-27 13:26 | 35.84766 | 14.49496 | 259 ft | 3 kts | 296° |
| 2026-04-27 13:26 | 35.84769 | 14.49488 | 259 ft | 0 kts | 293° |
| 2026-04-27 13:29 | 35.84771 | 14.49483 | 259 ft | 2 kts | 293° |
| 2026-04-27 13:29 | 35.84780 | 14.49461 | 259 ft | 4 kts | 303° |
| 2026-04-27 13:29 | 35.84803 | 14.49428 | 259 ft | 6 kts | 314° |
| 2026-04-27 13:29 | 35.84838 | 14.49384 | 259 ft | 8 kts | 315° |
| 2026-04-27 13:30 | 35.84884 | 14.49328 | 259 ft | 10 kts | 315° |
| 2026-04-27 13:30 | 35.84934 | 14.49255 | 258 ft | 12 kts | 293° |
| 2026-04-27 13:30 | 35.84911 | 14.49162 | 258 ft | 10 kts | 226° |
| 2026-04-27 13:30 | 35.84913 | 14.49079 | 258 ft | 12 kts | 303° |
| 2026-04-27 13:31 | 35.84924 | 14.48995 | 258 ft | 6 kts | 243° |
| 2026-04-27 13:31 | 35.84921 | 14.48990 | 258 ft | 0 kts | 237° |
| 2026-04-27 13:33 | 35.84915 | 14.48983 | 258 ft | 2 kts | 222° |
| 2026-04-27 13:33 | 35.84893 | 14.48974 | 258 ft | 4 kts | 191° |
| 2026-04-27 13:33 | 35.84855 | 14.48978 | 258 ft | 7 kts | 171° |
| 2026-04-27 13:33 | 35.84799 | 14.48973 | 259 ft | 9 kts | 200° |
| 2026-04-27 13:34 | 35.84746 | 14.48988 | 259 ft | 6 kts | 133° |
| 2026-04-27 13:34 | 35.84741 | 14.48995 | 259 ft | 8 kts | 133° |
| 2026-04-27 13:34 | 35.84512 | 14.49279 | 259 ft | 82 kts | 135° |
| 2026-04-27 13:34 | 35.83970 | 14.49952 | 257 ft | 136 kts | 135° |
| 2026-04-27 13:35 | 35.83235 | 14.50866 | 546 ft | 153 kts | 136° |
| 2026-04-27 13:35 | 35.82430 | 14.51706 | 1211 ft | 152 kts | 152° |
| 2026-04-27 13:35 | 35.81438 | 14.52208 | 1702 ft | 161 kts | 167° |
| 2026-04-27 13:35 | 35.80253 | 14.52440 | 2017 ft | 183 kts | 179° |
| 2026-04-27 13:36 | 35.78909 | 14.52290 | 2284 ft | 206 kts | 195° |
| 2026-04-27 13:36 | 35.77510 | 14.51570 | 2595 ft | 230 kts | 214° |
| 2026-04-27 13:36 | 35.76280 | 14.50178 | 3065 ft | 251 kts | 234° |
| 2026-04-27 13:36 | 35.75351 | 14.48313 | 3845 ft | 259 kts | 240° |
| 2026-04-27 13:37 | 35.74423 | 14.46396 | 4771 ft | 262 kts | 240° |
| 2026-04-27 13:37 | 35.73481 | 14.44465 | 5702 ft | 264 kts | 240° |
| 2026-04-27 13:37 | 35.72577 | 14.42494 | 6641 ft | 265 kts | 249° |
| 2026-04-27 13:37 | 35.72149 | 14.40302 | 7477 ft | 265 kts | 268° |
| 2026-04-27 13:38 | 35.72364 | 14.38052 | 8310 ft | 268 kts | 288° |
| 2026-04-27 13:38 | 35.73210 | 14.36005 | 9150 ft | 271 kts | 307° |
| 2026-04-27 13:38 | 35.74596 | 14.34421 | 9990 ft | 276 kts | 326° |
| 2026-04-27 13:38 | 35.76372 | 14.33422 | 10551 ft | 290 kts | 336° |
| 2026-04-27 13:39 | 35.78329 | 14.32493 | 10785 ft | 313 kts | 336° |
| 2026-04-27 13:39 | 35.80402 | 14.31521 | 11301 ft | 322 kts | 336° |
| 2026-04-27 13:39 | 35.82514 | 14.30538 | 11994 ft | 326 kts | 336° |
| 2026-04-27 13:39 | 35.84646 | 14.29545 | 12716 ft | 329 kts | 336° |
| 2026-04-27 13:40 | 35.86800 | 14.28535 | 13446 ft | 332 kts | 335° |
| 2026-04-27 13:40 | 35.88945 | 14.27524 | 14131 ft | 335 kts | 335° |
| 2026-04-27 13:40 | 35.91144 | 14.26486 | 14769 ft | 338 kts | 335° |
| 2026-04-27 13:40 | 35.93331 | 14.25452 | 15384 ft | 341 kts | 335° |
| 2026-04-27 13:41 | 35.95572 | 14.24392 | 16000 ft | 344 kts | 335° |
| 2026-04-27 13:41 | 35.97809 | 14.23334 | 16605 ft | 347 kts | 335° |
| 2026-04-27 13:41 | 36.00117 | 14.22337 | 17211 ft | 353 kts | 342° |
| 2026-04-27 13:41 | 36.02558 | 14.21961 | 17812 ft | 363 kts | 356° |
| 2026-04-27 13:42 | 36.05095 | 14.22373 | 18423 ft | 375 kts | 11° |
| 2026-04-27 13:42 | 36.07539 | 14.23639 | 18960 ft | 387 kts | 26° |
| 2026-04-27 13:42 | 36.09821 | 14.25487 | 19517 ft | 392 kts | 29° |
| 2026-04-27 13:42 | 36.12083 | 14.27354 | 20069 ft | 395 kts | 29° |
| 2026-04-27 13:43 | 36.14373 | 14.29243 | 20643 ft | 398 kts | 29° |
| 2026-04-27 13:43 | 36.16705 | 14.31165 | 21210 ft | 401 kts | 29° |
| 2026-04-27 13:43 | 36.19016 | 14.33070 | 21738 ft | 404 kts | 29° |
| 2026-04-27 13:43 | 36.21386 | 14.35019 | 22271 ft | 407 kts | 29° |
| 2026-04-27 13:44 | 36.23740 | 14.36953 | 22793 ft | 410 kts | 29° |
| 2026-04-27 13:44 | 36.26135 | 14.38923 | 23313 ft | 414 kts | 29° |
| 2026-04-27 13:44 | 36.28549 | 14.40910 | 23803 ft | 417 kts | 29° |
| 2026-04-27 13:44 | 36.30948 | 14.42889 | 24206 ft | 420 kts | 29° |
| 2026-04-27 13:45 | 36.33410 | 14.44920 | 24627 ft | 423 kts | 28° |
| 2026-04-27 13:45 | 36.35850 | 14.46931 | 25027 ft | 426 kts | 29° |
| 2026-04-27 13:45 | 36.38340 | 14.48988 | 25445 ft | 428 kts | 29° |
| 2026-04-27 13:45 | 36.40825 | 14.51048 | 25846 ft | 431 kts | 29° |
| 2026-04-27 13:46 | 36.43334 | 14.53129 | 26237 ft | 434 kts | 29° |
| 2026-04-27 13:46 | 36.45835 | 14.55204 | 26615 ft | 437 kts | 29° |
| 2026-04-27 13:46 | 36.48403 | 14.57182 | 26977 ft | 436 kts | 22° |
| 2026-04-27 13:46 | 36.51190 | 14.58681 | 27335 ft | 433 kts | 13° |
| 2026-04-27 13:47 | 36.54068 | 14.59611 | 27685 ft | 429 kts | 5° |
| 2026-04-27 13:47 | 36.57030 | 14.60281 | 28050 ft | 432 kts | 5° |
| 2026-04-27 13:47 | 36.59972 | 14.60948 | 28451 ft | 434 kts | 5° |
| 2026-04-27 13:47 | 36.62963 | 14.61634 | 28823 ft | 436 kts | 5° |
| 2026-04-27 13:48 | 36.65946 | 14.62323 | 29182 ft | 439 kts | 5° |
| 2026-04-27 13:48 | 36.68975 | 14.63024 | 29527 ft | 441 kts | 5° |
| 2026-04-27 13:48 | 36.71998 | 14.63724 | 29885 ft | 444 kts | 5° |
| 2026-04-27 13:48 | 36.75027 | 14.64426 | 30222 ft | 447 kts | 5° |
| 2026-04-27 13:49 | 36.78119 | 14.65144 | 30521 ft | 449 kts | 5° |
| 2026-04-27 13:49 | 36.81190 | 14.65856 | 30835 ft | 451 kts | 6° |
| 2026-04-27 13:49 | 36.84253 | 14.66562 | 31167 ft | 451 kts | 5° |
| 2026-04-27 13:49 | 36.87360 | 14.67271 | 31602 ft | 450 kts | 5° |
| 2026-04-27 13:50 | 36.90414 | 14.67965 | 32027 ft | 449 kts | 5° |
| 2026-04-27 13:50 | 36.93472 | 14.68656 | 32450 ft | 448 kts | 5° |
| 2026-04-27 13:50 | 36.96536 | 14.69346 | 32868 ft | 447 kts | 5° |
| 2026-04-27 13:50 | 36.99606 | 14.70041 | 33287 ft | 447 kts | 5° |
| 2026-04-27 13:51 | 37.02666 | 14.70738 | 33720 ft | 446 kts | 5° |
| 2026-04-27 13:51 | 37.05714 | 14.71435 | 34183 ft | 445 kts | 5° |
| 2026-04-27 13:51 | 37.08755 | 14.72133 | 34551 ft | 444 kts | 5° |
| 2026-04-27 13:51 | 37.11770 | 14.72825 | 34887 ft | 444 kts | 5° |
| 2026-04-27 13:52 | 37.14809 | 14.73519 | 35231 ft | 443 kts | 5° |
| 2026-04-27 13:52 | 37.17843 | 14.74209 | 35571 ft | 442 kts | 5° |
| 2026-04-27 13:52 | 37.20880 | 14.74899 | 35889 ft | 442 kts | 5° |
| 2026-04-27 13:52 | 37.23911 | 14.75590 | 36086 ft | 442 kts | 5° |
| 2026-04-27 13:53 | 37.33013 | 14.77232 | 36097 ft | 441 kts | 2° |
| 2026-04-27 13:54 | 37.39102 | 14.78157 | 36098 ft | 441 kts | 2° |
| 2026-04-27 13:54 | 37.45185 | 14.79137 | 36098 ft | 441 kts | 3° |
| 2026-04-27 13:55 | 37.51270 | 14.80177 | 36097 ft | 441 kts | 3° |
| 2026-04-27 13:55 | 37.57359 | 14.81220 | 36104 ft | 442 kts | 3° |
| 2026-04-27 13:56 | 37.63448 | 14.82257 | 36110 ft | 442 kts | 3° |
| 2026-04-27 13:56 | 37.69551 | 14.83287 | 36121 ft | 442 kts | 3° |
| 2026-04-27 13:57 | 37.75621 | 14.84323 | 36150 ft | 442 kts | 4° |
| 2026-04-27 13:57 | 37.81734 | 14.85371 | 36147 ft | 442 kts | 4° |
| 2026-04-27 13:58 | 37.87832 | 14.86405 | 36144 ft | 442 kts | 4° |
| 2026-04-27 13:58 | 37.93928 | 14.87441 | 36143 ft | 442 kts | 4° |
| 2026-04-27 13:59 | 38.00009 | 14.88481 | 36148 ft | 442 kts | 4° |
| 2026-04-27 13:59 | 38.06103 | 14.89528 | 36136 ft | 441 kts | 4° |
| 2026-04-27 14:00 | 38.12192 | 14.90573 | 36145 ft | 442 kts | 4° |
| 2026-04-27 14:00 | 38.18293 | 14.91625 | 36167 ft | 442 kts | 4° |
| 2026-04-27 14:01 | 38.24405 | 14.92679 | 36159 ft | 442 kts | 4° |
| 2026-04-27 14:01 | 38.30456 | 14.93721 | 36150 ft | 441 kts | 4° |
| 2026-04-27 14:02 | 38.36531 | 14.94768 | 36145 ft | 441 kts | 4° |
| 2026-04-27 14:02 | 38.42615 | 14.95822 | 36156 ft | 441 kts | 4° |
| 2026-04-27 14:03 | 38.48705 | 14.96883 | 36153 ft | 441 kts | 4° |
| 2026-04-27 14:03 | 38.54793 | 14.97943 | 36147 ft | 440 kts | 4° |
| 2026-04-27 14:04 | 38.60863 | 14.99000 | 36152 ft | 440 kts | 4° |
| 2026-04-27 14:04 | 38.66901 | 15.00052 | 36150 ft | 440 kts | 5° |
| 2026-04-27 14:05 | 38.72966 | 15.01114 | 36147 ft | 440 kts | 5° |
| 2026-04-27 14:05 | 38.79035 | 15.02179 | 36145 ft | 440 kts | 5° |
| 2026-04-27 14:06 | 38.85122 | 15.03237 | 36154 ft | 440 kts | 5° |
| 2026-04-27 14:06 | 38.91152 | 15.04293 | 36149 ft | 440 kts | 5° |
| 2026-04-27 14:07 | 38.97225 | 15.05351 | 36143 ft | 439 kts | 5° |
| 2026-04-27 14:07 | 39.03286 | 15.06412 | 36141 ft | 439 kts | 5° |
| 2026-04-27 14:08 | 39.09320 | 15.07475 | 36147 ft | 439 kts | 5° |
| 2026-04-27 14:08 | 39.15402 | 15.08546 | 36145 ft | 439 kts | 5° |
| 2026-04-27 14:09 | 39.21426 | 15.09624 | 36143 ft | 439 kts | 5° |
| 2026-04-27 14:09 | 39.27485 | 15.10710 | 36154 ft | 439 kts | 5° |
| 2026-04-27 14:10 | 39.33540 | 15.11779 | 36148 ft | 438 kts | 5° |
| 2026-04-27 14:10 | 39.39544 | 15.12841 | 36147 ft | 438 kts | 5° |
| 2026-04-27 14:11 | 39.45583 | 15.13915 | 36146 ft | 438 kts | 5° |
| 2026-04-27 14:11 | 39.51624 | 15.15000 | 36150 ft | 438 kts | 5° |
| 2026-04-27 14:12 | 39.57651 | 15.16082 | 36144 ft | 437 kts | 5° |
| 2026-04-27 14:12 | 39.63660 | 15.17160 | 36141 ft | 437 kts | 5° |
| 2026-04-27 14:13 | 39.69691 | 15.18238 | 36142 ft | 437 kts | 5° |
| 2026-04-27 14:13 | 39.75719 | 15.19313 | 36143 ft | 437 kts | 5° |
| 2026-04-27 14:14 | 39.81732 | 15.20396 | 36140 ft | 437 kts | 6° |
| 2026-04-27 14:14 | 39.87770 | 15.21489 | 36140 ft | 437 kts | 6° |
| 2026-04-27 14:15 | 39.93784 | 15.22583 | 36150 ft | 437 kts | 5° |
| 2026-04-27 14:15 | 39.99793 | 15.23677 | 36147 ft | 436 kts | 5° |
| 2026-04-27 14:16 | 40.05807 | 15.24768 | 36142 ft | 436 kts | 5° |
| 2026-04-27 14:16 | 40.11799 | 15.25868 | 36145 ft | 436 kts | 5° |
| 2026-04-27 14:17 | 40.17816 | 15.26970 | 36140 ft | 436 kts | 5° |
| 2026-04-27 14:17 | 40.23788 | 15.28064 | 36138 ft | 436 kts | 5° |
| 2026-04-27 14:18 | 40.29807 | 15.29157 | 36138 ft | 435 kts | 5° |
| 2026-04-27 14:18 | 40.35787 | 15.30246 | 36145 ft | 436 kts | 5° |
| 2026-04-27 14:19 | 40.41816 | 15.31352 | 36140 ft | 435 kts | 5° |
| 2026-04-27 14:19 | 40.47789 | 15.32446 | 36137 ft | 435 kts | 5° |
| 2026-04-27 14:20 | 40.53771 | 15.33547 | 36141 ft | 435 kts | 5° |
| 2026-04-27 14:20 | 40.59763 | 15.34656 | 36137 ft | 435 kts | 5° |
| 2026-04-27 14:21 | 40.65783 | 15.35770 | 36131 ft | 435 kts | 5° |
| 2026-04-27 14:21 | 40.71765 | 15.36883 | 36126 ft | 435 kts | 5° |
| 2026-04-27 14:22 | 40.77747 | 15.37989 | 36132 ft | 435 kts | 5° |
| 2026-04-27 14:22 | 40.83726 | 15.39103 | 36119 ft | 435 kts | 5° |
| 2026-04-27 14:23 | 40.89703 | 15.40214 | 36125 ft | 434 kts | 5° |
| 2026-04-27 14:23 | 40.95668 | 15.41318 | 36131 ft | 434 kts | 4° |
| 2026-04-27 14:24 | 41.00685 | 15.42252 | 36115 ft | 433 kts | 4° |
| 2026-04-27 14:24 | 41.06643 | 15.43362 | 36108 ft | 433 kts | 4° |
| 2026-04-27 14:25 | 41.13566 | 15.44667 | 36112 ft | 433 kts | 5° |
| 2026-04-27 14:25 | 41.18541 | 15.45608 | 36117 ft | 433 kts | 4° |
| 2026-04-27 14:26 | 41.24537 | 15.46739 | 36111 ft | 433 kts | 4° |
| 2026-04-27 14:26 | 41.30498 | 15.47857 | 36108 ft | 433 kts | 4° |
| 2026-04-27 14:27 | 41.36434 | 15.48979 | 36111 ft | 432 kts | 4° |
| 2026-04-27 14:27 | 41.42370 | 15.50109 | 36112 ft | 432 kts | 4° |
| 2026-04-27 14:28 | 41.48322 | 15.51237 | 36107 ft | 432 kts | 4° |
| 2026-04-27 14:28 | 41.54287 | 15.52369 | 36106 ft | 431 kts | 4° |
| 2026-04-27 14:29 | 41.60228 | 15.53493 | 36113 ft | 431 kts | 4° |
| 2026-04-27 14:29 | 41.66136 | 15.54614 | 36110 ft | 430 kts | 4° |
| 2026-04-27 14:30 | 41.72050 | 15.55751 | 36110 ft | 430 kts | 4° |
| 2026-04-27 14:30 | 41.77976 | 15.56883 | 36123 ft | 430 kts | 4° |
| 2026-04-27 14:31 | 41.83893 | 15.58012 | 36125 ft | 430 kts | 4° |
| 2026-04-27 14:31 | 41.89834 | 15.59152 | 36125 ft | 430 kts | 4° |
| 2026-04-27 14:32 | 41.95749 | 15.60288 | 36139 ft | 429 kts | 5° |
| 2026-04-27 14:32 | 42.01660 | 15.61432 | 36131 ft | 429 kts | 5° |
| 2026-04-27 14:33 | 42.07529 | 15.62564 | 36127 ft | 429 kts | 4° |
| 2026-04-27 14:33 | 42.13458 | 15.63708 | 36124 ft | 429 kts | 5° |
| 2026-04-27 14:34 | 42.19328 | 15.64837 | 36127 ft | 428 kts | 5° |
| 2026-04-27 14:34 | 42.25240 | 15.65992 | 36120 ft | 428 kts | 5° |
| 2026-04-27 14:35 | 42.31151 | 15.67144 | 36118 ft | 428 kts | 5° |
| 2026-04-27 14:35 | 42.37052 | 15.68299 | 36124 ft | 428 kts | 5° |
| 2026-04-27 14:36 | 42.42941 | 15.69453 | 36122 ft | 428 kts | 5° |
| 2026-04-27 14:36 | 42.48793 | 15.70574 | 36123 ft | 426 kts | 2° |
| 2026-04-27 14:37 | 42.54695 | 15.70701 | 36124 ft | 424 kts | 358° |
| 2026-04-27 14:37 | 42.60592 | 15.70765 | 36121 ft | 424 kts | 358° |
| 2026-04-27 14:38 | 42.66494 | 15.70870 | 36124 ft | 424 kts | 358° |
| 2026-04-27 14:38 | 42.72398 | 15.70980 | 36120 ft | 424 kts | 358° |
| 2026-04-27 14:39 | 42.78292 | 15.71088 | 36125 ft | 424 kts | 358° |
| 2026-04-27 14:39 | 42.84184 | 15.71196 | 36121 ft | 423 kts | 358° |
| 2026-04-27 14:40 | 42.90071 | 15.71300 | 36123 ft | 423 kts | 358° |
| 2026-04-27 14:40 | 42.95966 | 15.71405 | 36121 ft | 423 kts | 359° |
| 2026-04-27 14:41 | 43.01846 | 15.71510 | 36123 ft | 423 kts | 359° |
| 2026-04-27 14:41 | 43.07726 | 15.71613 | 36125 ft | 422 kts | 359° |
| 2026-04-27 14:42 | 43.13593 | 15.71722 | 36128 ft | 422 kts | 359° |
| 2026-04-27 14:42 | 43.19461 | 15.71835 | 36127 ft | 422 kts | 359° |
| 2026-04-27 14:43 | 43.25300 | 15.71942 | 36126 ft | 421 kts | 359° |
| 2026-04-27 14:43 | 43.31165 | 15.72051 | 36127 ft | 421 kts | 359° |
| 2026-04-27 14:44 | 43.37021 | 15.72156 | 36128 ft | 421 kts | 359° |
| 2026-04-27 14:44 | 43.42858 | 15.72263 | 36127 ft | 420 kts | 359° |
| 2026-04-27 14:45 | 43.48730 | 15.72376 | 36131 ft | 420 kts | 359° |
| 2026-04-27 14:45 | 43.54555 | 15.72478 | 36124 ft | 420 kts | 359° |
| 2026-04-27 14:46 | 43.60391 | 15.72581 | 36126 ft | 420 kts | 359° |
| 2026-04-27 14:46 | 43.66252 | 15.72692 | 36124 ft | 420 kts | 359° |
| 2026-04-27 14:47 | 43.72073 | 15.72801 | 36127 ft | 419 kts | 359° |
| 2026-04-27 14:47 | 43.77906 | 15.72914 | 36023 ft | 417 kts | 359° |
| 2026-04-27 14:47 | 43.80807 | 15.72971 | 35464 ft | 417 kts | 359° |
| 2026-04-27 14:48 | 43.83705 | 15.73025 | 34858 ft | 417 kts | 359° |
| 2026-04-27 14:48 | 43.89497 | 15.73136 | 33578 ft | 417 kts | 360° |
| 2026-04-27 14:48 | 43.92416 | 15.73194 | 32859 ft | 418 kts | 0° |
| 2026-04-27 14:49 | 43.95337 | 15.73253 | 32125 ft | 418 kts | 0° |
| 2026-04-27 14:49 | 43.98210 | 15.73309 | 31425 ft | 418 kts | 0° |
| 2026-04-27 14:49 | 44.01129 | 15.73367 | 30889 ft | 414 kts | 0° |
| 2026-04-27 14:49 | 44.04003 | 15.73424 | 30358 ft | 410 kts | 0° |
| 2026-04-27 14:50 | 44.06843 | 15.73476 | 29771 ft | 407 kts | 0° |
| 2026-04-27 14:50 | 44.09649 | 15.73522 | 29145 ft | 403 kts | 360° |
| 2026-04-27 14:50 | 44.12419 | 15.73569 | 28555 ft | 400 kts | 360° |
| 2026-04-27 14:50 | 44.15213 | 15.73619 | 27972 ft | 397 kts | 360° |
| 2026-04-27 14:51 | 44.17936 | 15.73673 | 27422 ft | 394 kts | 360° |
| 2026-04-27 14:51 | 44.20671 | 15.73728 | 26870 ft | 391 kts | 359° |
| 2026-04-27 14:51 | 44.23382 | 15.73778 | 26336 ft | 388 kts | 360° |
| 2026-04-27 14:51 | 44.25206 | 15.73812 | 25976 ft | 387 kts | 359° |
| 2026-04-27 14:52 | 44.28755 | 15.73879 | 25310 ft | 384 kts | 359° |
| 2026-04-27 14:52 | 44.31434 | 15.73936 | 24862 ft | 381 kts | 359° |
| 2026-04-27 14:52 | 44.34075 | 15.73992 | 24412 ft | 379 kts | 359° |
| 2026-04-27 14:52 | 44.36676 | 15.74043 | 23973 ft | 377 kts | 359° |
| 2026-04-27 14:53 | 44.39296 | 15.74092 | 23535 ft | 375 kts | 359° |
| 2026-04-27 14:53 | 44.41898 | 15.74143 | 23060 ft | 373 kts | 359° |
| 2026-04-27 14:53 | 44.44497 | 15.74192 | 22588 ft | 371 kts | 359° |
| 2026-04-27 14:53 | 44.47051 | 15.74239 | 22116 ft | 369 kts | 359° |
| 2026-04-27 14:54 | 44.49615 | 15.74292 | 21647 ft | 366 kts | 359° |
| 2026-04-27 14:54 | 44.52152 | 15.74343 | 21181 ft | 363 kts | 359° |
| 2026-04-27 14:54 | 44.54675 | 15.74392 | 20710 ft | 361 kts | 359° |
| 2026-04-27 14:54 | 44.57179 | 15.74438 | 20221 ft | 359 kts | 359° |
| 2026-04-27 14:55 | 44.59675 | 15.74483 | 19734 ft | 357 kts | 359° |
| 2026-04-27 14:55 | 44.62157 | 15.74527 | 19258 ft | 355 kts | 359° |
| 2026-04-27 14:55 | 44.64623 | 15.74572 | 18781 ft | 354 kts | 359° |
| 2026-04-27 14:55 | 44.67077 | 15.74618 | 18291 ft | 352 kts | 359° |
| 2026-04-27 14:56 | 44.69523 | 15.74667 | 17762 ft | 350 kts | 359° |
| 2026-04-27 14:56 | 44.71927 | 15.74712 | 17243 ft | 348 kts | 359° |
| 2026-04-27 14:56 | 44.74345 | 15.74753 | 16745 ft | 346 kts | 359° |
| 2026-04-27 14:56 | 44.76752 | 15.74801 | 16363 ft | 345 kts | 359° |
| 2026-04-27 14:57 | 44.79152 | 15.74848 | 15983 ft | 344 kts | 359° |
| 2026-04-27 14:57 | 44.81542 | 15.74893 | 15604 ft | 342 kts | 359° |
| 2026-04-27 14:57 | 44.83928 | 15.74940 | 15237 ft | 341 kts | 359° |
| 2026-04-27 14:57 | 44.86304 | 15.74991 | 14859 ft | 340 kts | 359° |
| 2026-04-27 14:58 | 44.88639 | 15.75039 | 14518 ft | 339 kts | 359° |
| 2026-04-27 14:58 | 44.91001 | 15.75085 | 14158 ft | 338 kts | 359° |
| 2026-04-27 14:58 | 44.93352 | 15.75131 | 13794 ft | 337 kts | 359° |
| 2026-04-27 14:58 | 44.95695 | 15.75177 | 13389 ft | 336 kts | 359° |
| 2026-04-27 14:59 | 44.98026 | 15.75220 | 12994 ft | 334 kts | 359° |
| 2026-04-27 14:59 | 45.00355 | 15.75265 | 12608 ft | 333 kts | 359° |
| 2026-04-27 14:59 | 45.02660 | 15.75313 | 12221 ft | 332 kts | 359° |
| 2026-04-27 14:59 | 45.04972 | 15.75359 | 11840 ft | 331 kts | 359° |
| 2026-04-27 15:00 | 45.07280 | 15.75407 | 11463 ft | 330 kts | 359° |
| 2026-04-27 15:00 | 45.09540 | 15.75457 | 11097 ft | 329 kts | 359° |
| 2026-04-27 15:00 | 45.11827 | 15.75510 | 10728 ft | 328 kts | 359° |
| 2026-04-27 15:00 | 45.14089 | 15.75562 | 10491 ft | 320 kts | 359° |
| 2026-04-27 15:01 | 45.16275 | 15.75608 | 10370 ft | 309 kts | 359° |
| 2026-04-27 15:01 | 45.18394 | 15.75649 | 10246 ft | 299 kts | 359° |
| 2026-04-27 15:01 | 45.20453 | 15.75688 | 10012 ft | 293 kts | 359° |
| 2026-04-27 15:01 | 45.22489 | 15.75723 | 9697 ft | 291 kts | 359° |
| 2026-04-27 15:02 | 45.24515 | 15.75761 | 9349 ft | 290 kts | 359° |
| 2026-04-27 15:02 | 45.26532 | 15.75800 | 9031 ft | 289 kts | 359° |
| 2026-04-27 15:02 | 45.28533 | 15.75840 | 8711 ft | 286 kts | 358° |
| 2026-04-27 15:02 | 45.30493 | 15.75879 | 8414 ft | 284 kts | 358° |
| 2026-04-27 15:03 | 45.32466 | 15.75917 | 8083 ft | 283 kts | 358° |
| 2026-04-27 15:03 | 45.34424 | 15.75956 | 7759 ft | 282 kts | 358° |
| 2026-04-27 15:03 | 45.36382 | 15.75997 | 7454 ft | 280 kts | 358° |
| 2026-04-27 15:03 | 45.38323 | 15.76038 | 7139 ft | 278 kts | 358° |
| 2026-04-27 15:04 | 45.40282 | 15.76080 | 6842 ft | 278 kts | 358° |
| 2026-04-27 15:04 | 45.42186 | 15.76119 | 6544 ft | 276 kts | 358° |
| 2026-04-27 15:04 | 45.44102 | 15.76159 | 6220 ft | 275 kts | 358° |
| 2026-04-27 15:04 | 45.46010 | 15.76197 | 5901 ft | 273 kts | 358° |
| 2026-04-27 15:05 | 45.47908 | 15.76231 | 5618 ft | 272 kts | 358° |
| 2026-04-27 15:05 | 45.49785 | 15.76265 | 5325 ft | 268 kts | 358° |
| 2026-04-27 15:05 | 45.51625 | 15.76304 | 5183 ft | 260 kts | 360° |
| 2026-04-27 15:05 | 45.53378 | 15.76729 | 5057 ft | 254 kts | 17° |
| 2026-04-27 15:06 | 45.54934 | 15.77847 | 4927 ft | 248 kts | 34° |
| 2026-04-27 15:06 | 45.56183 | 15.79492 | 4809 ft | 241 kts | 45° |
| 2026-04-27 15:06 | 45.57316 | 15.81201 | 4671 ft | 231 kts | 45° |
| 2026-04-27 15:06 | 45.58381 | 15.82805 | 4538 ft | 214 kts | 45° |
| 2026-04-27 15:07 | 45.59374 | 15.84301 | 4280 ft | 203 kts | 45° |
| 2026-04-27 15:07 | 45.60340 | 15.85755 | 3965 ft | 199 kts | 46° |
| 2026-04-27 15:07 | 45.61285 | 15.87179 | 3618 ft | 196 kts | 47° |
| 2026-04-27 15:07 | 45.62214 | 15.88581 | 3457 ft | 191 kts | 49° |
| 2026-04-27 15:08 | 45.63123 | 15.89954 | 3215 ft | 191 kts | 48° |
| 2026-04-27 15:08 | 45.64020 | 15.91307 | 3040 ft | 183 kts | 49° |
| 2026-04-27 15:08 | 45.64868 | 15.92589 | 2893 ft | 175 kts | 48° |
| 2026-04-27 15:08 | 45.65695 | 15.93840 | 2658 ft | 172 kts | 49° |
| 2026-04-27 15:09 | 45.66511 | 15.95074 | 2420 ft | 170 kts | 49° |
| 2026-04-27 15:09 | 45.67331 | 15.96316 | 2165 ft | 170 kts | 49° |
| 2026-04-27 15:09 | 45.68114 | 15.97500 | 1922 ft | 157 kts | 48° |
| 2026-04-27 15:09 | 45.68833 | 15.98589 | 1724 ft | 146 kts | 51° |
| 2026-04-27 15:10 | 45.69519 | 15.99628 | 1527 ft | 141 kts | 50° |
| 2026-04-27 15:10 | 45.70200 | 16.00662 | 1347 ft | 144 kts | 47° |
| 2026-04-27 15:10 | 45.70664 | 16.01357 | 1169 ft | 147 kts | 49° |
| 2026-04-27 15:10 | 45.71600 | 16.02785 | 887 ft | 149 kts | 48° |
| 2026-04-27 15:11 | 45.72309 | 16.03869 | 672 ft | 149 kts | 49° |
| 2026-04-27 15:11 | 45.73018 | 16.04936 | 462 ft | 147 kts | 49° |
| 2026-04-27 15:11 | 45.73693 | 16.05968 | 361 ft | 129 kts | 47° |
| 2026-04-27 15:11 | 45.74194 | 16.06727 | 361 ft | 81 kts | 47° |
| 2026-04-27 15:12 | 45.74429 | 16.07084 | 362 ft | 63 kts | 46° |
| 2026-04-27 15:12 | 45.74647 | 16.07413 | 358 ft | 26 kts | 46° |
| 2026-04-27 15:12 | 45.74673 | 16.07514 | 360 ft | 11 kts | 119° |
| 2026-04-27 15:12 | 45.74613 | 16.07605 | 358 ft | 14 kts | 137° |
| 2026-04-27 15:13 | 45.74536 | 16.07704 | 360 ft | 16 kts | 137° |
| 2026-04-27 15:13 | 45.74450 | 16.07819 | 359 ft | 16 kts | 137° |
| 2026-04-27 15:13 | 45.74376 | 16.07907 | 359 ft | 10 kts | 166° |
| 2026-04-27 15:13 | 45.74310 | 16.07847 | 359 ft | 13 kts | 226° |
| 2026-04-27 15:14 | 45.74242 | 16.07744 | 359 ft | 16 kts | 226° |
| 2026-04-27 15:14 | 45.74160 | 16.07618 | 362 ft | 19 kts | 227° |
| 2026-04-27 15:14 | 45.74099 | 16.07525 | 365 ft | 6 kts | 226° |
| 2026-04-27 15:14 | 45.74058 | 16.07529 | 359 ft | 8 kts | 141° |
| 2026-04-27 15:15 | 45.74021 | 16.07581 | 359 ft | 6 kts | 136° |
| 2026-04-27 15:15 | 45.74010 | 16.07597 | 359 ft | 0 kts | 136° |
| 2026-04-27 15:19 | 45.74009 | 16.07597 | 359 ft | 0 kts | 136° |